sensor_id;sensor_type;location;lat;lon;timestamp;pressure;altitude;pressure_sealevel;temperature;humidity
66381;BME280;53177;52.648;1.214;2023-03-20T00:00:06;101318.50;;;6.96;83.03
66381;BME280;53177;52.648;1.214;2023-03-20T00:02:34;101305.34;;;6.99;83.35
66381;BME280;53177;52.648;1.214;2023-03-20T00:05:13;101300.97;;;6.95;84.40
66381;BME280;53177;52.648;1.214;2023-03-20T00:07:39;101301.88;;;6.94;83.36
66381;BME280;53177;52.648;1.214;2023-03-20T00:10:05;101312.34;;;6.96;83.65
66381;BME280;53177;52.648;1.214;2023-03-20T00:12:30;101313.22;;;6.92;84.08
66381;BME280;53177;52.648;1.214;2023-03-20T00:14:56;101319.38;;;6.94;84.14
66381;BME280;53177;52.648;1.214;2023-03-20T00:17:21;101314.09;;;6.89;84.18
66381;BME280;53177;52.648;1.214;2023-03-20T00:19:47;101312.38;;;6.87;84.20
66381;BME280;53177;52.648;1.214;2023-03-20T00:22:12;101308.84;;;6.84;84.97
66381;BME280;53177;52.648;1.214;2023-03-20T00:24:37;101317.63;;;6.87;84.11
66381;BME280;53177;52.648;1.214;2023-03-20T00:27:03;101317.59;;;6.91;84.50
66381;BME280;53177;52.648;1.214;2023-03-20T00:29:31;101319.34;;;6.88;84.24
66381;BME280;53177;52.648;1.214;2023-03-20T00:31:58;101325.50;;;6.90;84.61
66381;BME280;53177;52.648;1.214;2023-03-20T00:34:26;101314.97;;;6.91;84.56
66381;BME280;53177;52.648;1.214;2023-03-20T00:36:54;101311.47;;;6.92;84.58
66381;BME280;53177;52.648;1.214;2023-03-20T00:39:20;101307.09;;;6.91;84.45
66381;BME280;53177;52.648;1.214;2023-03-20T00:44:32;101298.34;;;6.91;84.62
66381;BME280;53177;52.648;1.214;2023-03-20T00:47:00;101292.19;;;6.89;84.80
66381;BME280;53177;52.648;1.214;2023-03-20T00:49:31;101292.22;;;6.93;84.52
66381;BME280;53177;52.648;1.214;2023-03-20T00:51:59;101294.81;;;6.89;84.99
66381;BME280;53177;52.648;1.214;2023-03-20T00:54:25;101297.47;;;6.89;85.08
66381;BME280;53177;52.648;1.214;2023-03-20T00:56:55;101299.22;;;6.90;84.70
66381;BME280;53177;52.648;1.214;2023-03-20T00:59:26;101307.09;;;6.96;84.83
66381;BME280;53177;52.648;1.214;2023-03-20T01:01:53;101299.22;;;6.93;84.52
66381;BME280;53177;52.648;1.214;2023-03-20T01:04:19;101303.63;;;6.91;85.33
66381;BME280;53177;52.648;1.214;2023-03-20T01:06:45;101305.34;;;6.89;84.74
66381;BME280;53177;52.648;1.214;2023-03-20T01:09:10;101294.84;;;6.87;85.72
66381;BME280;53177;52.648;1.214;2023-03-20T01:11:37;101285.19;;;6.89;85.54
66381;BME280;53177;52.648;1.214;2023-03-20T01:14:05;101286.06;;;6.90;85.44
66381;BME280;53177;52.648;1.214;2023-03-20T01:16:37;101286.94;;;6.90;85.38
66381;BME280;53177;52.648;1.214;2023-03-20T01:19:02;101276.41;;;6.89;85.89
66381;BME280;53177;52.648;1.214;2023-03-20T01:21:28;101271.16;;;6.85;86.23
66381;BME280;53177;52.648;1.214;2023-03-20T01:23:53;101270.31;;;6.87;85.48
66381;BME280;53177;52.648;1.214;2023-03-20T01:26:40;101270.28;;;6.82;85.67
66381;BME280;53177;52.648;1.214;2023-03-20T01:29:20;101273.78;;;6.84;85.71
66381;BME280;53177;52.648;1.214;2023-03-20T01:31:49;101266.78;;;6.84;86.37
66381;BME280;53177;52.648;1.214;2023-03-20T01:34:15;101263.28;;;6.89;86.41
66381;BME280;53177;52.648;1.214;2023-03-20T01:36:44;101255.38;;;6.92;85.82
66381;BME280;53177;52.648;1.214;2023-03-20T01:39:11;101258.03;;;6.92;85.85
66381;BME280;53177;52.648;1.214;2023-03-20T01:41:37;101257.16;;;6.87;86.27
66381;BME280;53177;52.648;1.214;2023-03-20T01:44:24;101247.50;;;6.85;85.83
66381;BME280;53177;52.648;1.214;2023-03-20T01:46:51;101248.38;;;6.84;85.98
66381;BME280;53177;52.648;1.214;2023-03-20T01:51:43;101247.50;;;6.84;85.49
66381;BME280;53177;52.648;1.214;2023-03-20T01:57:21;101253.63;;;6.81;86.16
66381;BME280;53177;52.648;1.214;2023-03-20T02:00:09;101247.50;;;6.84;86.30
66381;BME280;53177;52.648;1.214;2023-03-20T02:02:37;101239.63;;;6.85;86.04
66381;BME280;53177;52.648;1.214;2023-03-20T02:05:07;101240.50;;;6.89;86.17
66381;BME280;53177;52.648;1.214;2023-03-20T02:07:35;101247.50;;;6.84;86.63
66381;BME280;53177;52.648;1.214;2023-03-20T02:10:03;101247.50;;;6.82;86.57
66381;BME280;53177;52.648;1.214;2023-03-20T02:12:31;101244.88;;;6.84;86.37
66381;BME280;53177;52.648;1.214;2023-03-20T02:14:57;101252.75;;;6.84;86.50
66381;BME280;53177;52.648;1.214;2023-03-20T02:17:23;101243.09;;;6.80;86.83
66381;BME280;53177;52.648;1.214;2023-03-20T02:20:05;101239.63;;;6.78;87.14
66381;BME280;53177;52.648;1.214;2023-03-20T02:35:09;101211.56;;;6.74;86.47
66381;BME280;53177;52.648;1.214;2023-03-20T02:48:53;101204.56;;;6.77;85.80
66381;BME280;53177;52.648;1.214;2023-03-20T02:56:31;101190.56;;;6.81;85.87
66381;BME280;53177;52.648;1.214;2023-03-20T03:01:43;101191.44;;;6.79;86.74
66381;BME280;53177;52.648;1.214;2023-03-20T03:04:15;101188.81;;;6.79;86.92
66381;BME280;53177;52.648;1.214;2023-03-20T03:06:43;101184.41;;;6.78;87.33
66381;BME280;53177;52.648;1.214;2023-03-20T03:09:14;101187.91;;;6.77;87.11
66381;BME280;53177;52.648;1.214;2023-03-20T03:11:47;101182.69;;;6.75;87.99
66381;BME280;53177;52.648;1.214;2023-03-20T03:14:20;101184.44;;;6.79;87.53
66381;BME280;53177;52.648;1.214;2023-03-20T03:16:50;101185.28;;;6.77;87.75
66381;BME280;53177;52.648;1.214;2023-03-20T03:19:20;101180.91;;;6.77;87.43
66381;BME280;53177;52.648;1.214;2023-03-20T03:21:48;101178.28;;;6.79;87.52
66381;BME280;53177;52.648;1.214;2023-03-20T03:24:33;101178.31;;;6.76;88.00
66381;BME280;53177;52.648;1.214;2023-03-20T03:27:03;101172.16;;;6.74;87.26
66381;BME280;53177;52.648;1.214;2023-03-20T03:29:33;101174.78;;;6.78;87.39
66381;BME280;53177;52.648;1.214;2023-03-20T03:32:02;101167.78;;;6.77;87.69
66381;BME280;53177;52.648;1.214;2023-03-20T03:34:30;101168.63;;;6.76;88.15
66381;BME280;53177;52.648;1.214;2023-03-20T03:37:08;101164.25;;;6.77;88.41
66381;BME280;53177;52.648;1.214;2023-03-20T03:39:47;101164.28;;;6.75;88.30
66381;BME280;53177;52.648;1.214;2023-03-20T03:42:35;101167.78;;;6.74;88.51
66381;BME280;53177;52.648;1.214;2023-03-20T03:45:13;101168.63;;;6.73;88.01
66381;BME280;53177;52.648;1.214;2023-03-20T03:47:56;101168.63;;;6.76;88.25
66381;BME280;53177;52.648;1.214;2023-03-20T03:50:34;101163.38;;;6.73;87.77
66381;BME280;53177;52.648;1.214;2023-03-20T03:53:07;101168.63;;;6.73;88.01
66381;BME280;53177;52.648;1.214;2023-03-20T03:55:38;101166.91;;;6.72;87.20
66381;BME280;53177;52.648;1.214;2023-03-20T03:58:13;101164.28;;;6.75;87.24
66381;BME280;53177;52.648;1.214;2023-03-20T04:00:41;101161.66;;;6.75;86.32
66381;BME280;53177;52.648;1.214;2023-03-20T04:03:09;101158.13;;;6.81;87.14
66381;BME280;53177;52.648;1.214;2023-03-20T04:05:37;101156.38;;;6.81;86.57
66381;BME280;53177;52.648;1.214;2023-03-20T04:08:05;101153.75;;;6.80;86.26
66381;BME280;53177;52.648;1.214;2023-03-20T04:10:31;101148.47;;;6.80;85.85
66381;BME280;53177;52.648;1.214;2023-03-20T04:12:57;101154.63;;;6.77;85.85
66381;BME280;53177;52.648;1.214;2023-03-20T04:15:22;101153.75;;;6.77;85.84
66381;BME280;53177;52.648;1.214;2023-03-20T04:17:48;101147.63;;;6.78;85.33
66381;BME280;53177;52.648;1.214;2023-03-20T04:20:15;101156.38;;;6.77;85.25
66381;BME280;53177;52.648;1.214;2023-03-20T04:22:41;101154.63;;;6.77;85.81
66381;BME280;53177;52.648;1.214;2023-03-20T04:25:08;101156.38;;;6.77;85.60
66381;BME280;53177;52.648;1.214;2023-03-20T04:27:34;101154.63;;;6.79;85.91
66381;BME280;53177;52.648;1.214;2023-03-20T04:30:00;101157.25;;;6.80;85.86
66381;BME280;53177;52.648;1.214;2023-03-20T04:32:25;101161.63;;;6.80;85.37
66381;BME280;53177;52.648;1.214;2023-03-20T04:34:51;101166.88;;;6.77;84.56
66381;BME280;53177;52.648;1.214;2023-03-20T04:37:16;101157.25;;;6.80;84.66
66381;BME280;53177;52.648;1.214;2023-03-20T04:39:42;101155.50;;;6.78;85.04
66381;BME280;53177;52.648;1.214;2023-03-20T04:42:08;101155.50;;;6.70;85.41
66381;BME280;53177;52.648;1.214;2023-03-20T04:44:33;101160.78;;;6.75;85.95
66381;BME280;53177;52.648;1.214;2023-03-20T04:46:59;101154.63;;;6.70;86.14
66381;BME280;53177;52.648;1.214;2023-03-20T04:49:25;101145.88;;;6.75;86.63
66381;BME280;53177;52.648;1.214;2023-03-20T04:51:51;101140.59;;;6.69;86.38
66381;BME280;53177;52.648;1.214;2023-03-20T04:54:16;101137.09;;;6.66;86.17
66381;BME280;53177;52.648;1.214;2023-03-20T04:56:41;101137.09;;;6.66;86.62
66381;BME280;53177;52.648;1.214;2023-03-20T04:59:07;101141.50;;;6.67;87.24
66381;BME280;53177;52.648;1.214;2023-03-20T05:01:32;101132.72;;;6.71;86.29
66381;BME280;53177;52.648;1.214;2023-03-20T05:03:58;101128.34;;;6.65;86.55
66381;BME280;53177;52.648;1.214;2023-03-20T05:06:28;101131.84;;;6.63;86.74
66381;BME280;53177;52.648;1.214;2023-03-20T05:08:54;101127.50;;;6.60;86.62
66381;BME280;53177;52.648;1.214;2023-03-20T05:11:20;101128.34;;;6.59;87.44
66381;BME280;53177;52.648;1.214;2023-03-20T05:13:46;101119.59;;;6.60;86.44
66381;BME280;53177;52.648;1.214;2023-03-20T05:16:12;101130.09;;;6.59;86.05
66381;BME280;53177;52.648;1.214;2023-03-20T05:18:37;101125.72;;;6.62;86.58
66381;BME280;53177;52.648;1.214;2023-03-20T05:21:03;101125.72;;;6.59;86.50
66381;BME280;53177;52.648;1.214;2023-03-20T05:23:28;101122.22;;;6.60;86.91
66381;BME280;53177;52.648;1.214;2023-03-20T05:25:54;101118.72;;;6.66;85.88
66381;BME280;53177;52.648;1.214;2023-03-20T05:28:20;101122.22;;;6.66;85.85
66381;BME280;53177;52.648;1.214;2023-03-20T05:30:46;101120.47;;;6.67;86.51
66381;BME280;53177;52.648;1.214;2023-03-20T05:33:18;101123.97;;;6.70;85.96
66381;BME280;53177;52.648;1.214;2023-03-20T05:35:44;101123.97;;;6.70;86.64
66381;BME280;53177;52.648;1.214;2023-03-20T05:38:10;101123.09;;;6.67;86.98
66381;BME280;53177;52.648;1.214;2023-03-20T05:40:36;101111.72;;;6.63;87.09
66381;BME280;53177;52.648;1.214;2023-03-20T05:43:02;101111.72;;;6.66;86.89
66381;BME280;53177;52.648;1.214;2023-03-20T05:45:28;101110.84;;;6.64;86.20
66381;BME280;53177;52.648;1.214;2023-03-20T05:47:54;101109.09;;;6.63;86.66
66381;BME280;53177;52.648;1.214;2023-03-20T05:50:20;101105.59;;;6.64;86.30
66381;BME280;53177;52.648;1.214;2023-03-20T05:52:49;101115.19;;;6.65;86.59
66381;BME280;53177;52.648;1.214;2023-03-20T05:55:14;101113.47;;;6.64;86.53
66381;BME280;53177;52.648;1.214;2023-03-20T05:57:40;101099.44;;;6.67;86.41
66381;BME280;53177;52.648;1.214;2023-03-20T06:00:06;101090.69;;;6.68;86.00
66381;BME280;53177;52.648;1.214;2023-03-20T06:02:32;101088.06;;;6.66;86.30
66381;BME280;53177;52.648;1.214;2023-03-20T06:04:58;101085.44;;;6.68;85.86
66381;BME280;53177;52.648;1.214;2023-03-20T06:07:23;101088.94;;;6.64;86.59
66381;BME280;53177;52.648;1.214;2023-03-20T06:09:49;101092.44;;;6.66;87.23
66381;BME280;53177;52.648;1.214;2023-03-20T06:12:15;101096.81;;;6.62;88.40
66381;BME280;53177;52.648;1.214;2023-03-20T06:14:40;101110.84;;;6.60;89.09
66381;BME280;53177;52.648;1.214;2023-03-20T06:17:05;101107.34;;;6.59;89.78
66381;BME280;53177;52.648;1.214;2023-03-20T06:19:31;101103.81;;;6.59;90.10
66381;BME280;53177;52.648;1.214;2023-03-20T06:21:56;101110.84;;;6.61;90.80
66381;BME280;53177;52.648;1.214;2023-03-20T06:24:22;101107.31;;;6.62;90.35
66381;BME280;53177;52.648;1.214;2023-03-20T06:26:47;101102.94;;;6.63;91.07
66381;BME280;53177;52.648;1.214;2023-03-20T06:29:13;101105.56;;;6.63;91.20
66381;BME280;53177;52.648;1.214;2023-03-20T06:31:38;101100.31;;;6.58;92.23
66381;BME280;53177;52.648;1.214;2023-03-20T06:34:04;101109.09;;;6.57;93.05
66381;BME280;53177;52.648;1.214;2023-03-20T06:36:29;101102.06;;;6.55;92.98
66381;BME280;53177;52.648;1.214;2023-03-20T06:38:56;101096.81;;;6.58;93.21
66381;BME280;53177;52.648;1.214;2023-03-20T06:41:21;101096.81;;;6.55;94.34
66381;BME280;53177;52.648;1.214;2023-03-20T06:43:47;101095.97;;;6.50;94.12
66381;BME280;53177;52.648;1.214;2023-03-20T06:46:13;101107.34;;;6.52;95.21
66381;BME280;53177;52.648;1.214;2023-03-20T06:48:38;101096.84;;;6.53;95.33
66381;BME280;53177;52.648;1.214;2023-03-20T06:51:03;101107.31;;;6.55;95.10
66381;BME280;53177;52.648;1.214;2023-03-20T06:53:29;101102.09;;;6.56;95.60
66381;BME280;53177;52.648;1.214;2023-03-20T06:55:54;101106.44;;;6.54;96.45
66381;BME280;53177;52.648;1.214;2023-03-20T06:58:20;101107.34;;;6.53;96.06
66381;BME280;53177;52.648;1.214;2023-03-20T07:00:45;101116.09;;;6.54;96.76
66381;BME280;53177;52.648;1.214;2023-03-20T07:03:11;101117.84;;;6.47;98.01
66381;BME280;53177;52.648;1.214;2023-03-20T07:05:37;101116.06;;;6.43;99.06
66381;BME280;53177;52.648;1.214;2023-03-20T07:08:03;101121.34;;;6.43;99.72
66381;BME280;53177;52.648;1.214;2023-03-20T07:10:30;101115.19;;;6.40;99.98
66381;BME280;53177;52.648;1.214;2023-03-20T07:12:57;101118.72;;;6.42;100.00
66381;BME280;53177;52.648;1.214;2023-03-20T07:15:22;101123.97;;;6.37;100.00
66381;BME280;53177;52.648;1.214;2023-03-20T07:17:48;101128.34;;;6.40;100.00
66381;BME280;53177;52.648;1.214;2023-03-20T07:20:15;101125.72;;;6.41;100.00
66381;BME280;53177;52.648;1.214;2023-03-20T07:22:41;101126.59;;;6.42;100.00
66381;BME280;53177;52.648;1.214;2023-03-20T07:25:08;101126.59;;;6.48;100.00
66381;BME280;53177;52.648;1.214;2023-03-20T07:27:33;101124.84;;;6.45;100.00
66381;BME280;53177;52.648;1.214;2023-03-20T07:29:59;101127.50;;;6.47;100.00
66381;BME280;53177;52.648;1.214;2023-03-20T07:32:24;101123.97;;;6.48;100.00
66381;BME280;53177;52.648;1.214;2023-03-20T07:34:50;101123.97;;;6.48;100.00
66381;BME280;53177;52.648;1.214;2023-03-20T07:37:15;101121.34;;;6.48;100.00
66381;BME280;53177;52.648;1.214;2023-03-20T07:39:41;101121.34;;;6.51;100.00
66381;BME280;53177;52.648;1.214;2023-03-20T07:42:06;101124.84;;;6.53;100.00
66381;BME280;53177;52.648;1.214;2023-03-20T07:44:32;101128.34;;;6.55;100.00
66381;BME280;53177;52.648;1.214;2023-03-20T07:46:57;101123.97;;;6.57;100.00
66381;BME280;53177;52.648;1.214;2023-03-20T07:49:23;101116.97;;;6.59;100.00
66381;BME280;53177;52.648;1.214;2023-03-20T07:51:49;101124.84;;;6.63;100.00
66381;BME280;53177;52.648;1.214;2023-03-20T07:54:15;101114.31;;;6.62;100.00
66381;BME280;53177;52.648;1.214;2023-03-20T07:56:41;101116.09;;;6.66;100.00
66381;BME280;53177;52.648;1.214;2023-03-20T07:59:06;101116.97;;;6.68;100.00
66381;BME280;53177;52.648;1.214;2023-03-20T08:01:32;101116.09;;;6.72;100.00
66381;BME280;53177;52.648;1.214;2023-03-20T08:03:58;101124.88;;;6.72;100.00
66381;BME280;53177;52.648;1.214;2023-03-20T08:06:23;101124.84;;;6.74;100.00
66381;BME280;53177;52.648;1.214;2023-03-20T08:08:48;101121.34;;;6.78;100.00
66381;BME280;53177;52.648;1.214;2023-03-20T08:11:17;101120.44;;;6.80;100.00
66381;BME280;53177;52.648;1.214;2023-03-20T08:13:42;101129.22;;;6.85;100.00
66381;BME280;53177;52.648;1.214;2023-03-20T08:16:08;101127.47;;;6.84;100.00
66381;BME280;53177;52.648;1.214;2023-03-20T08:18:34;101121.31;;;6.89;100.00
66381;BME280;53177;52.648;1.214;2023-03-20T08:20:59;101120.44;;;6.91;100.00
66381;BME280;53177;52.648;1.214;2023-03-20T08:23:26;101121.31;;;6.92;100.00
66381;BME280;53177;52.648;1.214;2023-03-20T08:25:51;101123.09;;;6.94;100.00
66381;BME280;53177;52.648;1.214;2023-03-20T08:28:19;101126.59;;;6.98;100.00
66381;BME280;53177;52.648;1.214;2023-03-20T08:30:45;101123.06;;;7.05;100.00
66381;BME280;53177;52.648;1.214;2023-03-20T08:33:12;101113.41;;;7.08;100.00
66381;BME280;53177;52.648;1.214;2023-03-20T08:35:37;101122.16;;;7.12;100.00
66381;BME280;53177;52.648;1.214;2023-03-20T08:38:02;101116.00;;;7.17;100.00
66381;BME280;53177;52.648;1.214;2023-03-20T08:40:29;101110.75;;;7.19;100.00
66381;BME280;53177;52.648;1.214;2023-03-20T08:42:55;101121.28;;;7.23;100.00
66381;BME280;53177;52.648;1.214;2023-03-20T08:45:20;101118.63;;;7.23;100.00
66381;BME280;53177;52.648;1.214;2023-03-20T08:47:50;101115.97;;;7.29;100.00
66381;BME280;53177;52.648;1.214;2023-03-20T08:50:17;101115.94;;;7.35;100.00
66381;BME280;53177;52.648;1.214;2023-03-20T08:52:43;101115.09;;;7.38;100.00
66381;BME280;53177;52.648;1.214;2023-03-20T08:55:11;101121.19;;;7.40;100.00
66381;BME280;53177;52.648;1.214;2023-03-20T08:57:37;101117.72;;;7.43;100.00
66381;BME280;53177;52.648;1.214;2023-03-20T09:00:04;101121.19;;;7.45;100.00
66381;BME280;53177;52.648;1.214;2023-03-20T09:02:31;101119.44;;;7.45;100.00
66381;BME280;53177;52.648;1.214;2023-03-20T09:04:56;101121.19;;;7.46;100.00
66381;BME280;53177;52.648;1.214;2023-03-20T09:07:21;101121.19;;;7.49;100.00
66381;BME280;53177;52.648;1.214;2023-03-20T09:09:47;101123.78;;;7.51;100.00
66381;BME280;53177;52.648;1.214;2023-03-20T09:12:12;101126.41;;;7.55;100.00
66381;BME280;53177;52.648;1.214;2023-03-20T09:14:38;101125.50;;;7.62;100.00
66381;BME280;53177;52.648;1.214;2023-03-20T09:17:04;101123.75;;;7.63;100.00
66381;BME280;53177;52.648;1.214;2023-03-20T09:19:30;101125.50;;;7.64;100.00
66381;BME280;53177;52.648;1.214;2023-03-20T09:21:55;101120.22;;;7.67;100.00
66381;BME280;53177;52.648;1.214;2023-03-20T09:24:20;101114.94;;;7.73;100.00
66381;BME280;53177;52.648;1.214;2023-03-20T09:26:46;101114.94;;;7.76;100.00
66381;BME280;53177;52.648;1.214;2023-03-20T09:29:11;101121.91;;;7.80;100.00
66381;BME280;53177;52.648;1.214;2023-03-20T09:31:37;101120.16;;;7.80;100.00
66381;BME280;53177;52.648;1.214;2023-03-20T09:34:02;101114.88;;;7.82;100.00
66381;BME280;53177;52.648;1.214;2023-03-20T09:36:28;101123.66;;;7.82;100.00
66381;BME280;53177;52.648;1.214;2023-03-20T09:38:53;101117.50;;;7.85;100.00
66381;BME280;53177;52.648;1.214;2023-03-20T09:41:21;101118.34;;;7.89;100.00
66381;BME280;53177;52.648;1.214;2023-03-20T09:52:31;101120.88;;;8.07;100.00
66381;BME280;53177;52.648;1.214;2023-03-20T09:55:02;101126.16;;;8.08;100.00
66381;BME280;53177;52.648;1.214;2023-03-20T09:57:40;101116.47;;;8.12;100.00
66381;BME280;53177;52.648;1.214;2023-03-20T10:00:11;101119.09;;;8.13;100.00
66381;BME280;53177;52.648;1.214;2023-03-20T10:02:41;101120.81;;;8.17;100.00
66381;BME280;53177;52.648;1.214;2023-03-20T10:05:42;101118.13;;;8.25;100.00
66381;BME280;53177;52.648;1.214;2023-03-20T10:08:13;101128.66;;;8.32;100.00
66381;BME280;53177;52.648;1.214;2023-03-20T10:11:28;101116.34;;;8.36;100.00
66381;BME280;53177;52.648;1.214;2023-03-20T10:14:26;101126.81;;;8.45;100.00
66381;BME280;53177;52.648;1.214;2023-03-20T10:22:28;101116.03;;;8.72;100.00
66381;BME280;53177;52.648;1.214;2023-03-20T10:25:14;101115.09;;;8.81;100.00
66381;BME280;53177;52.648;1.214;2023-03-20T10:27:48;101115.00;;;8.90;100.00
66381;BME280;53177;52.648;1.214;2023-03-20T10:36:03;101107.75;;;9.10;100.00
66381;BME280;53177;52.648;1.214;2023-03-20T10:41:17;101108.44;;;9.31;100.00
66381;BME280;53177;52.648;1.214;2023-03-20T10:43:46;101100.44;;;9.35;100.00
66381;BME280;53177;52.648;1.214;2023-03-20T10:46:34;101102.97;;;9.46;100.00
66381;BME280;53177;52.648;1.214;2023-03-20T10:49:08;101100.28;;;9.47;100.00
66381;BME280;53177;52.648;1.214;2023-03-20T10:51:50;101102.94;;;9.47;100.00
66381;BME280;53177;52.648;1.214;2023-03-20T10:54:23;101101.97;;;9.56;100.00
66381;BME280;53177;52.648;1.214;2023-03-20T10:56:52;101101.00;;;9.61;100.00
66381;BME280;53177;52.648;1.214;2023-03-20T10:59:25;101102.59;;;9.74;100.00
66381;BME280;53177;52.648;1.214;2023-03-20T11:01:51;101099.09;;;9.72;100.00
66381;BME280;53177;52.648;1.214;2023-03-20T11:04:17;101096.31;;;9.83;100.00
66381;BME280;53177;52.648;1.214;2023-03-20T11:06:59;101094.53;;;9.84;100.00
66381;BME280;53177;52.648;1.214;2023-03-20T11:09:27;101092.72;;;9.90;100.00
66381;BME280;53177;52.648;1.214;2023-03-20T11:11:59;101096.03;;;10.03;100.00
66381;BME280;53177;52.648;1.214;2023-03-20T11:14:32;101100.44;;;10.02;100.00
66381;BME280;53177;52.648;1.214;2023-03-20T11:17:00;101091.56;;;10.06;100.00
66381;BME280;53177;52.648;1.214;2023-03-20T11:19:31;101088.00;;;10.10;100.00
66381;BME280;53177;52.648;1.214;2023-03-20T11:22:00;101086.34;;;10.02;100.00
66381;BME280;53177;52.648;1.214;2023-03-20T11:29:36;101090.63;;;10.12;100.00
66381;BME280;53177;52.648;1.214;2023-03-20T11:32:29;101094.13;;;10.15;100.00
66381;BME280;53177;52.648;1.214;2023-03-20T11:34:55;101090.56;;;10.19;100.00
66381;BME280;53177;52.648;1.214;2023-03-20T11:37:26;101097.53;;;10.23;100.00
66381;BME280;53177;52.648;1.214;2023-03-20T11:40:23;101096.63;;;10.24;100.00
66381;BME280;53177;52.648;1.214;2023-03-20T11:45:24;101087.75;;;10.30;100.00
66381;BME280;53177;52.648;1.214;2023-03-20T11:47:52;101096.56;;;10.27;100.00
66381;BME280;53177;52.648;1.214;2023-03-20T11:50:32;101092.16;;;10.30;100.00
66381;BME280;53177;52.648;1.214;2023-03-20T11:53:02;101092.09;;;10.33;100.00
66381;BME280;53177;52.648;1.214;2023-03-20T11:55:32;101092.97;;;10.32;100.00
66381;BME280;53177;52.648;1.214;2023-03-20T11:58:00;101093.91;;;10.31;100.00
66381;BME280;53177;52.648;1.214;2023-03-20T12:00:39;101095.50;;;10.39;100.00
66381;BME280;53177;52.648;1.214;2023-03-20T12:05:59;101095.50;;;10.39;100.00
66381;BME280;53177;52.648;1.214;2023-03-20T12:08:26;101098.16;;;10.39;100.00
66381;BME280;53177;52.648;1.214;2023-03-20T12:10:58;101092.78;;;10.45;100.00
66381;BME280;53177;52.648;1.214;2023-03-20T12:13:33;101098.78;;;10.53;100.00
66381;BME280;53177;52.648;1.214;2023-03-20T12:16:02;101096.78;;;10.69;100.00
66381;BME280;53177;52.648;1.214;2023-03-20T12:18:35;101099.28;;;10.78;100.00
66381;BME280;53177;52.648;1.214;2023-03-20T12:21:14;101098.41;;;10.78;100.00
66381;BME280;53177;52.648;1.214;2023-03-20T12:23:54;101099.09;;;10.87;100.00
66381;BME280;53177;52.648;1.214;2023-03-20T12:34:04;101077.56;;;11.08;100.00
66381;BME280;53177;52.648;1.214;2023-03-20T12:36:34;101076.41;;;11.20;100.00
66381;BME280;53177;52.648;1.214;2023-03-20T12:39:09;101078.75;;;11.37;100.00
66381;BME280;53177;52.648;1.214;2023-03-20T12:41:53;101071.31;;;11.54;100.00
66381;BME280;53177;52.648;1.214;2023-03-20T12:44:34;101074.84;;;11.54;100.00
66381;BME280;53177;52.648;1.214;2023-03-20T12:47:11;101066.25;;;11.43;99.19
66381;BME280;53177;52.648;1.214;2023-03-20T12:49:55;101060.72;;;11.55;98.97
66381;BME280;53177;52.648;1.214;2023-03-20T12:52:42;101057.16;;;11.56;98.08
66381;BME280;53177;52.648;1.214;2023-03-20T12:55:41;101052.59;;;11.63;98.32
66381;BME280;53177;52.648;1.214;2023-03-20T12:58:26;101061.97;;;11.79;98.72
66381;BME280;53177;52.648;1.214;2023-03-20T13:01:01;101054.97;;;11.77;97.27
66381;BME280;53177;52.648;1.214;2023-03-20T13:03:38;101052.16;;;11.83;97.91
66381;BME280;53177;52.648;1.214;2023-03-20T13:06:16;101054.88;;;11.81;97.94
66381;BME280;53177;52.648;1.214;2023-03-20T13:13:56;101047.50;;;11.94;97.34
66381;BME280;53177;52.648;1.214;2023-03-20T13:19:26;101043.94;;;11.95;96.72
66381;BME280;53177;52.648;1.214;2023-03-20T13:22:05;101042.03;;;12.01;96.07
66381;BME280;53177;52.648;1.214;2023-03-20T13:24:42;101035.72;;;12.07;96.01
66381;BME280;53177;52.648;1.214;2023-03-20T13:35:52;101031.88;;;12.54;93.45
66381;BME280;53177;52.648;1.214;2023-03-20T13:38:23;101029.00;;;12.63;94.29
66381;BME280;53177;52.648;1.214;2023-03-20T13:41:03;101039.63;;;12.63;93.86
66381;BME280;53177;52.648;1.214;2023-03-20T13:43:46;101038.84;;;12.59;94.19
66381;BME280;53177;52.648;1.214;2023-03-20T13:46:20;101037.13;;;12.57;94.42
66381;BME280;53177;52.648;1.214;2023-03-20T13:48:47;101037.97;;;12.59;94.70
66381;BME280;53177;52.648;1.214;2023-03-20T13:54:00;101033.53;;;12.59;94.25
66381;BME280;53177;52.648;1.214;2023-03-20T13:56:33;101031.78;;;12.58;93.80
66381;BME280;53177;52.648;1.214;2023-03-20T14:04:21;101026.38;;;12.61;92.80
66381;BME280;53177;52.648;1.214;2023-03-20T14:06:54;101026.38;;;12.61;93.08
66381;BME280;53177;52.648;1.214;2023-03-20T14:09:31;101022.03;;;12.59;93.37
66381;BME280;53177;52.648;1.214;2023-03-20T14:12:06;101027.44;;;12.56;94.03
66381;BME280;53177;52.648;1.214;2023-03-20T14:14:45;101023.94;;;12.54;93.61
66381;BME280;53177;52.648;1.214;2023-03-20T14:17:15;101027.47;;;12.53;93.82
66381;BME280;53177;52.648;1.214;2023-03-20T14:19:41;101018.69;;;12.52;94.27
66381;BME280;53177;52.648;1.214;2023-03-20T14:22:15;101021.44;;;12.48;93.51
66381;BME280;53177;52.648;1.214;2023-03-20T14:24:48;101015.94;;;12.55;93.79
66381;BME280;53177;52.648;1.214;2023-03-20T14:27:19;101014.88;;;12.62;93.71
66381;BME280;53177;52.648;1.214;2023-03-20T14:29:45;101011.31;;;12.63;93.08
66381;BME280;53177;52.648;1.214;2023-03-20T14:34:49;101007.69;;;12.66;93.68
66381;BME280;53177;52.648;1.214;2023-03-20T14:37:37;101007.72;;;12.64;92.58
66381;BME280;53177;52.648;1.214;2023-03-20T14:40:12;101007.69;;;12.66;92.94
66381;BME280;53177;52.648;1.214;2023-03-20T14:42:59;101010.44;;;12.63;92.78
66381;BME280;53177;52.648;1.214;2023-03-20T14:45:39;101012.00;;;12.70;93.53
66381;BME280;53177;52.648;1.214;2023-03-20T14:48:29;101005.63;;;12.77;93.32
66381;BME280;53177;52.648;1.214;2023-03-20T14:53:42;101002.78;;;12.83;93.32
66381;BME280;53177;52.648;1.214;2023-03-20T15:01:09;100999.66;;;12.69;92.02
66381;BME280;53177;52.648;1.214;2023-03-20T15:03:39;100994.38;;;12.67;92.38